createdAt,value
2017-07-06T00:00:21.783Z,15.41
2017-07-06T00:00:49.825Z,15.36
2017-07-06T00:01:17.857Z,15.39
2017-07-06T00:01:45.868Z,15.39
2017-07-06T00:02:13.900Z,15.36
2017-07-06T00:02:41.720Z,15.39
2017-07-06T00:03:09.645Z,15.43
2017-07-06T00:03:37.692Z,15.43
2017-07-06T00:04:05.781Z,15.43
2017-07-06T00:04:33.839Z,15.41
2017-07-06T00:05:01.860Z,15.39
2017-07-06T00:05:30.000Z,15.45
2017-07-06T00:05:58.138Z,15.39
2017-07-06T00:06:25.976Z,15.37
2017-07-06T00:06:53.971Z,15.37
2017-07-06T00:07:22.079Z,15.39
2017-07-06T00:07:50.219Z,15.32
2017-07-06T00:08:18.373Z,15.27
2017-07-06T00:08:46.528Z,15.32
2017-07-06T00:09:14.552Z,15.29
2017-07-06T00:09:42.660Z,15.25
2017-07-06T00:10:10.684Z,15.19
2017-07-06T00:10:38.719Z,15.19
2017-07-06T00:11:06.648Z,15.14
2017-07-06T00:11:34.830Z,15.18
2017-07-06T00:12:02.957Z,15.18
2017-07-06T00:12:30.992Z,15.17
2017-07-06T00:12:59.108Z,15.15
2017-07-06T00:13:27.036Z,15.1
2017-07-06T00:13:54.970Z,15.1
2017-07-06T00:14:23.126Z,15.08
2017-07-06T00:14:51.116Z,15.07
2017-07-06T00:15:19.241Z,15.15
2017-07-06T00:15:47.171Z,15.1
2017-07-06T00:16:15.203Z,15.08
2017-07-06T00:16:43.260Z,15.05
2017-07-06T00:17:11.303Z,15.07
2017-07-06T00:17:39.419Z,15.12
2017-07-06T00:18:07.491Z,15.07
2017-07-06T00:18:35.529Z,15.1
2017-07-06T00:19:03.720Z,15.04
2017-07-06T00:19:31.736Z,15.07
2017-07-06T00:19:59.914Z,15.11
2017-07-06T00:20:27.946Z,15.04
2017-07-06T00:20:55.855Z,15.08
2017-07-06T00:21:24.043Z,15.18
2017-07-06T00:21:52.045Z,15.18
2017-07-06T00:22:20.130Z,15.11
2017-07-06T00:22:47.933Z,15.11
2017-07-06T00:23:15.838Z,15.14
2017-07-06T00:23:43.581Z,15.15
2017-07-06T00:24:11.608Z,15.14
2017-07-06T00:24:39.636Z,15.15
2017-07-06T00:25:07.642Z,15.14
2017-07-06T00:25:35.453Z,15.11
2017-07-06T00:26:03.351Z,15.18
2017-07-06T00:26:31.360Z,15.14
2017-07-06T00:26:59.289Z,15.11
2017-07-06T00:27:27.368Z,15.1
2017-07-06T00:27:55.298Z,15.08
2017-07-06T00:28:23.242Z,15.07
2017-07-06T00:28:51.391Z,15.12
2017-07-06T00:29:19.279Z,15.1
2017-07-06T00:29:47.086Z,15.04
2017-07-06T00:30:15.237Z,15
2017-07-06T00:30:43.320Z,14.97
2017-07-06T00:31:11.541Z,15
2017-07-06T00:31:44.654Z,15.02
2017-07-06T00:32:13.209Z,14.93
2017-07-06T00:32:41.509Z,14.9
2017-07-06T00:33:10.050Z,14.93
2017-07-06T00:33:39.677Z,14.93
2017-07-06T00:34:07.717Z,14.94
2017-07-06T00:34:35.742Z,14.96
2017-07-06T00:35:03.879Z,14.89
2017-07-06T00:35:31.893Z,14.93
2017-07-06T00:35:59.935Z,14.97
2017-07-06T00:36:27.855Z,14.96
2017-07-06T00:36:55.791Z,14.87
2017-07-06T00:37:23.630Z,14.9
2017-07-06T00:37:51.753Z,14.9
2017-07-06T00:38:19.669Z,14.89
2017-07-06T00:38:47.581Z,14.89
2017-07-06T00:39:15.522Z,14.87
2017-07-06T00:39:43.550Z,14.9
2017-07-06T00:40:11.629Z,14.87
2017-07-06T00:40:39.532Z,14.89
2017-07-06T00:41:07.550Z,14.87
2017-07-06T00:41:35.577Z,14.89
2017-07-06T00:42:03.635Z,14.93
2017-07-06T00:42:31.546Z,14.79
2017-07-06T00:42:59.471Z,14.87
2017-07-06T00:43:27.583Z,14.92
2017-07-06T00:43:55.585Z,14.92
2017-07-06T00:44:23.638Z,14.92
2017-07-06T00:44:51.770Z,14.9
2017-07-06T00:45:19.726Z,14.87
2017-07-06T00:45:47.663Z,14.9
2017-07-06T00:46:15.595Z,14.94
2017-07-06T00:46:43.550Z,14.87
2017-07-06T00:47:11.454Z,14.9
2017-07-06T00:47:39.361Z,14.87
2017-07-06T00:48:07.496Z,14.87
2017-07-06T00:48:35.615Z,14.87
2017-07-06T00:49:03.514Z,14.87
2017-07-06T00:49:31.637Z,14.92
2017-07-06T00:49:59.460Z,14.93
2017-07-06T00:50:27.486Z,14.86
2017-07-06T00:50:55.633Z,14.97
2017-07-06T00:51:23.640Z,14.86
2017-07-06T00:51:51.770Z,14.9
2017-07-06T00:52:19.600Z,14.93
2017-07-06T00:52:47.737Z,14.93
2017-07-06T00:53:15.840Z,14.96
2017-07-06T00:53:43.743Z,14.9
2017-07-06T00:54:11.368Z,14.92
2017-07-06T00:54:39.182Z,14.9
2017-07-06T00:55:07.210Z,14.9
2017-07-06T00:55:35.295Z,14.9
2017-07-06T00:56:03.256Z,14.87
2017-07-06T00:56:31.286Z,14.87
2017-07-06T00:56:59.309Z,14.85
2017-07-06T00:57:27.323Z,14.92
2017-07-06T00:57:55.456Z,14.93
2017-07-06T00:58:23.396Z,14.87
2017-07-06T00:58:51.507Z,14.86
2017-07-06T00:59:19.616Z,14.87
2017-07-06T00:59:47.620Z,14.87
2017-07-06T01:00:15.747Z,14.92
2017-07-06T01:00:43.739Z,14.9
2017-07-06T01:01:11.853Z,14.9
2017-07-06T01:01:39.799Z,14.89
2017-07-06T01:02:07.928Z,14.92
2017-07-06T01:02:35.833Z,14.94
2017-07-06T01:03:03.971Z,14.86
2017-07-06T01:03:31.996Z,14.9
2017-07-06T01:04:00.125Z,14.87
2017-07-06T01:04:28.240Z,14.94
2017-07-06T01:04:56.269Z,14.89
2017-07-06T01:05:24.397Z,14.87
2017-07-06T01:05:52.529Z,14.87
2017-07-06T01:06:20.689Z,14.89
2017-07-06T01:06:48.577Z,14.87
2017-07-06T01:07:16.717Z,14.89
2017-07-06T01:07:44.750Z,14.9
2017-07-06T01:08:12.879Z,14.9
2017-07-06T01:08:41.014Z,14.93
2017-07-06T01:09:09.041Z,14.87
2017-07-06T01:09:37.063Z,14.9
2017-07-06T01:10:05.056Z,14.78
2017-07-06T01:10:33.589Z,14.77
2017-07-06T01:11:01.524Z,14.82
2017-07-06T01:11:29.440Z,14.89
2017-07-06T01:11:57.351Z,14.87
2017-07-06T01:12:25.451Z,14.74
2017-07-06T01:12:53.470Z,14.82
2017-07-06T01:13:21.263Z,14.85
2017-07-06T01:13:49.200Z,14.79
2017-07-06T01:14:17.274Z,14.81
2017-07-06T01:14:45.216Z,14.74
2017-07-06T01:15:13.354Z,14.81
2017-07-06T01:15:41.504Z,14.81
2017-07-06T01:16:09.529Z,14.85
2017-07-06T01:16:37.648Z,14.86
2017-07-06T01:17:05.788Z,14.82
2017-07-06T01:17:33.770Z,14.79
2017-07-06T01:18:01.835Z,14.82
2017-07-06T01:18:29.908Z,14.81
2017-07-06T01:18:57.949Z,14.78
2017-07-06T01:19:25.982Z,14.73
2017-07-06T01:19:54.112Z,14.81
2017-07-06T01:20:22.249Z,14.9
2017-07-06T01:20:50.205Z,14.9
2017-07-06T01:21:18.199Z,14.93
2017-07-06T01:21:46.108Z,14.86
2017-07-06T01:22:13.900Z,14.86
2017-07-06T01:22:41.507Z,14.85
2017-07-06T01:23:09.361Z,14.87
2017-07-06T01:23:37.300Z,14.9
2017-07-06T01:24:05.216Z,14.9
2017-07-06T01:24:33.209Z,14.87
2017-07-06T01:25:01.021Z,14.86
2017-07-06T01:25:29.037Z,14.89
2017-07-06T01:25:57.179Z,14.93
2017-07-06T01:26:25.203Z,14.89
2017-07-06T01:26:53.229Z,14.87
2017-07-06T01:27:21.263Z,14.89
2017-07-06T01:27:49.290Z,14.87
2017-07-06T01:28:17.308Z,14.86
2017-07-06T01:28:45.442Z,14.92
2017-07-06T01:29:13.369Z,14.93
2017-07-06T01:29:41.472Z,14.78
2017-07-06T01:30:09.407Z,14.82
2017-07-06T01:30:37.533Z,14.78
2017-07-06T01:31:05.643Z,14.74
2017-07-06T01:31:33.668Z,14.63
2017-07-06T01:32:01.677Z,14.63
2017-07-06T01:32:29.694Z,14.73
2017-07-06T01:32:57.598Z,14.67
2017-07-06T01:33:25.411Z,14.67
2017-07-06T01:33:53.520Z,14.59
2017-07-06T01:34:21.635Z,14.58
2017-07-06T01:34:49.652Z,14.59
2017-07-06T01:35:17.568Z,14.55
2017-07-06T01:35:45.287Z,14.56
2017-07-06T01:36:13.338Z,14.51
2017-07-06T01:36:41.176Z,14.55
2017-07-06T01:37:09.094Z,14.52
2017-07-06T01:37:37.151Z,14.52
2017-07-06T01:38:05.002Z,14.52
2017-07-06T01:38:32.940Z,14.45
2017-07-06T01:39:01.048Z,14.49
2017-07-06T01:39:29.080Z,14.56
2017-07-06T01:39:57.197Z,14.53
2017-07-06T01:40:25.128Z,14.55
2017-07-06T01:40:53.017Z,14.49
2017-07-06T01:41:21.048Z,14.52
2017-07-06T01:41:48.972Z,14.51
2017-07-06T01:42:16.992Z,14.52
2017-07-06T01:42:45.138Z,14.48
2017-07-06T01:43:13.146Z,14.52
2017-07-06T01:43:41.164Z,14.51
2017-07-06T01:44:09.196Z,14.52
2017-07-06T01:44:37.252Z,14.52
2017-07-06T01:45:05.275Z,14.59
2017-07-06T01:45:33.273Z,14.52
2017-07-06T01:46:01.326Z,14.61
2017-07-06T01:46:29.342Z,14.59
2017-07-06T01:46:57.464Z,14.55
2017-07-06T01:47:25.281Z,14.62
2017-07-06T01:47:53.409Z,14.63
2017-07-06T01:48:21.518Z,14.59
2017-07-06T01:48:49.652Z,14.52
2017-07-06T01:49:17.464Z,14.63
2017-07-06T01:49:45.578Z,14.58
2017-07-06T01:50:13.702Z,14.66
2017-07-06T01:50:41.620Z,14.71
2017-07-06T01:51:09.579Z,14.66
2017-07-06T01:51:37.738Z,14.71
2017-07-06T01:52:05.786Z,14.74
2017-07-06T01:52:33.606Z,14.68
2017-07-06T01:53:01.634Z,14.66
2017-07-06T01:53:29.653Z,14.73
2017-07-06T01:53:57.662Z,14.74
2017-07-06T01:54:25.498Z,14.67
2017-07-06T01:54:53.531Z,14.68
2017-07-06T01:55:21.573Z,14.73
2017-07-06T01:55:49.611Z,14.71
2017-07-06T01:56:17.421Z,14.73
2017-07-06T01:56:45.454Z,14.66
2017-07-06T01:57:13.487Z,14.63
2017-07-06T01:57:41.417Z,14.68
2017-07-06T01:58:09.528Z,14.67
2017-07-06T01:58:37.559Z,14.7
2017-07-06T01:59:05.491Z,14.62
2017-07-06T01:59:33.535Z,14.66
2017-07-06T02:00:01.655Z,14.67
2017-07-06T02:00:29.516Z,14.68
2017-07-06T02:00:57.550Z,14.67
2017-07-06T02:01:25.556Z,14.62
2017-07-06T02:01:53.588Z,14.55
2017-07-06T02:02:21.587Z,14.61
2017-07-06T02:02:49.700Z,14.48
2017-07-06T02:03:17.736Z,14.49
2017-07-06T02:03:45.733Z,14.53
2017-07-06T02:04:13.737Z,14.55
2017-07-06T02:04:41.774Z,14.52
2017-07-06T02:05:09.796Z,14.41
2017-07-06T02:05:37.815Z,14.45
2017-07-06T02:06:05.827Z,14.41
2017-07-06T02:06:33.953Z,14.43
2017-07-06T02:07:01.896Z,14.36
2017-07-06T02:07:29.993Z,14.31
2017-07-06T02:07:57.857Z,14.36
2017-07-06T02:08:25.818Z,14.38
2017-07-06T02:08:53.981Z,14.34
2017-07-06T02:09:22.019Z,14.41
2017-07-06T02:09:50.237Z,14.38
2017-07-06T02:10:18.308Z,14.31
2017-07-06T02:10:46.440Z,14.3
2017-07-06T02:11:14.356Z,14.3
2017-07-06T02:11:42.378Z,14.26
2017-07-06T02:12:10.412Z,14.3
2017-07-06T02:12:38.435Z,14.3
2017-07-06T02:13:06.570Z,14.28
2017-07-06T02:13:34.956Z,14.26
2017-07-06T02:14:03.082Z,14.26
2017-07-06T02:14:31.111Z,14.26
2017-07-06T02:14:59.167Z,14.28
2017-07-06T02:15:27.201Z,14.25
2017-07-06T02:15:55.216Z,14.3
2017-07-06T02:16:23.050Z,14.31
2017-07-06T02:16:50.962Z,14.3
2017-07-06T02:17:18.896Z,14.36
2017-07-06T02:17:47.031Z,14.36
2017-07-06T02:18:15.169Z,14.31
2017-07-06T02:18:43.205Z,14.26
2017-07-06T02:19:11.238Z,14.33
2017-07-06T02:19:39.378Z,14.23
2017-07-06T02:20:07.399Z,14.33
2017-07-06T02:20:35.429Z,14.31
2017-07-06T02:21:03.585Z,14.28
2017-07-06T02:21:31.639Z,14.28
2017-07-06T02:21:59.365Z,14.28
2017-07-06T02:22:27.461Z,14.22
2017-07-06T02:22:55.452Z,14.22
2017-07-06T02:23:23.279Z,14.22
2017-07-06T02:23:51.205Z,14.15
2017-07-06T02:24:19.318Z,14.19
2017-07-06T02:24:47.419Z,14.22
2017-07-06T02:25:15.548Z,14.2
2017-07-06T02:25:43.489Z,14.2
2017-07-06T02:26:11.496Z,14.08
2017-07-06T02:26:39.619Z,14.19
2017-07-06T02:27:07.664Z,14.08
2017-07-06T02:27:35.803Z,14.15
2017-07-06T02:28:03.914Z,14.13
2017-07-06T02:28:31.930Z,14.13
2017-07-06T02:29:00.063Z,14.15
2017-07-06T02:29:28.430Z,14.11
2017-07-06T02:29:56.428Z,14.08
2017-07-06T02:30:24.443Z,14.11
2017-07-06T02:30:52.334Z,14.07
2017-07-06T02:31:20.259Z,14.03
2017-07-06T02:31:48.364Z,14.08
2017-07-06T02:32:16.298Z,14.13
2017-07-06T02:32:44.430Z,14
2017-07-06T02:33:12.360Z,14.08
2017-07-06T02:33:40.388Z,14.05
2017-07-06T02:34:08.420Z,14.01
2017-07-06T02:34:36.361Z,14.13
2017-07-06T02:35:04.532Z,14.03
2017-07-06T02:35:32.601Z,14.04
2017-07-06T02:36:00.609Z,14.04
2017-07-06T02:36:28.630Z,14.11
2017-07-06T02:36:56.739Z,14.13
2017-07-06T02:37:24.536Z,14.04
2017-07-06T02:37:52.562Z,14.08
2017-07-06T02:38:20.562Z,14.01
2017-07-06T02:38:48.701Z,14.13
2017-07-06T02:39:16.711Z,14.07
2017-07-06T02:39:44.720Z,14.11
2017-07-06T02:40:12.666Z,14.13
2017-07-06T02:40:40.681Z,14.11
2017-07-06T02:41:08.569Z,14.07
2017-07-06T02:41:36.683Z,13.97
2017-07-06T02:42:04.680Z,14.04
2017-07-06T02:42:32.603Z,14.01
2017-07-06T02:43:00.609Z,13.98
2017-07-06T02:43:28.623Z,13.97
2017-07-06T02:43:56.639Z,14.01
2017-07-06T02:44:24.574Z,13.98
2017-07-06T02:44:52.561Z,13.97
2017-07-06T02:45:20.493Z,14.03
2017-07-06T02:45:48.405Z,14.03
2017-07-06T02:46:16.321Z,14.08
2017-07-06T02:46:44.352Z,14.01
2017-07-06T02:47:12.367Z,13.97
2017-07-06T02:47:40.393Z,14
2017-07-06T02:48:08.415Z,14.01
2017-07-06T02:48:36.219Z,14.01
2017-07-06T02:49:04.105Z,14
2017-07-06T02:49:32.242Z,13.93
2017-07-06T02:50:00.177Z,13.94
2017-07-06T02:50:28.190Z,13.98
2017-07-06T02:50:56.234Z,13.97
2017-07-06T02:51:24.033Z,13.89
2017-07-06T02:51:51.969Z,13.97
2017-07-06T02:52:20.102Z,13.94
2017-07-06T02:52:48.231Z,13.89
2017-07-06T02:53:16.224Z,13.98
2017-07-06T02:53:44.351Z,13.93
2017-07-06T02:54:12.456Z,13.89
2017-07-06T02:54:40.382Z,13.82
2017-07-06T02:55:08.421Z,13.8
2017-07-06T02:55:36.361Z,13.85
2017-07-06T02:56:04.509Z,13.8
2017-07-06T02:56:32.578Z,13.79
2017-07-06T02:57:00.589Z,13.82
2017-07-06T02:57:28.708Z,13.83
2017-07-06T02:57:56.751Z,13.76
2017-07-06T02:58:24.679Z,13.76
2017-07-06T02:58:52.774Z,13.76
2017-07-06T02:59:20.801Z,13.71
2017-07-06T02:59:48.938Z,13.78
2017-07-06T03:00:16.968Z,13.7
2017-07-06T03:00:44.978Z,13.76
2017-07-06T03:01:13.117Z,13.78
2017-07-06T03:01:41.150Z,13.73
2017-07-06T03:02:09.163Z,13.78
2017-07-06T03:02:37.165Z,13.67
2017-07-06T03:03:05.190Z,13.68
2017-07-06T03:03:33.104Z,13.67
2017-07-06T03:04:01.093Z,13.65
2017-07-06T03:04:29.009Z,13.71
2017-07-06T03:04:57.044Z,13.73
2017-07-06T03:05:24.990Z,13.7
2017-07-06T03:05:53.130Z,13.68
2017-07-06T03:06:21.259Z,13.75
2017-07-06T03:06:49.266Z,13.68
2017-07-06T03:07:17.368Z,13.67
2017-07-06T03:07:45.493Z,13.73
2017-07-06T03:08:13.617Z,13.67
2017-07-06T03:08:41.626Z,13.75
2017-07-06T03:09:09.755Z,13.75
2017-07-06T03:09:37.737Z,13.73
2017-07-06T03:10:05.750Z,13.78
2017-07-06T03:10:33.765Z,13.71
2017-07-06T03:11:01.793Z,13.73
2017-07-06T03:11:29.915Z,13.79
2017-07-06T03:11:57.940Z,13.78
2017-07-06T03:12:25.958Z,13.79
2017-07-06T03:12:54.068Z,13.79
2017-07-06T03:13:22.190Z,13.82
2017-07-06T03:13:50.316Z,13.76
2017-07-06T03:14:18.420Z,13.75
2017-07-06T03:14:46.440Z,13.78
2017-07-06T03:15:14.479Z,13.75
2017-07-06T03:15:42.374Z,13.76
2017-07-06T03:16:10.400Z,13.75
2017-07-06T03:16:38.285Z,13.78
2017-07-06T03:17:06.444Z,13.8
2017-07-06T03:17:34.443Z,13.73
2017-07-06T03:18:02.579Z,13.75
2017-07-06T03:18:30.591Z,13.75
2017-07-06T03:18:58.713Z,13.71
2017-07-06T03:19:26.859Z,13.79
2017-07-06T03:19:54.982Z,13.79
2017-07-06T03:20:22.864Z,13.75
2017-07-06T03:20:50.989Z,13.83
2017-07-06T03:21:19.117Z,13.79
2017-07-06T03:21:47.245Z,13.76
2017-07-06T03:22:15.186Z,13.79
2017-07-06T03:22:43.232Z,13.78
2017-07-06T03:23:11.277Z,13.78
2017-07-06T03:23:39.300Z,13.78
2017-07-06T03:24:07.323Z,13.78
2017-07-06T03:24:35.402Z,13.8
2017-07-06T03:25:03.215Z,13.76
2017-07-06T03:25:31.159Z,13.79
2017-07-06T03:25:59.255Z,13.79
2017-07-06T03:26:27.394Z,13.76
2017-07-06T03:26:55.414Z,13.82
2017-07-06T03:27:23.457Z,13.79
2017-07-06T03:27:51.491Z,13.7
2017-07-06T03:28:19.521Z,13.71
2017-07-06T03:28:47.562Z,13.7
2017-07-06T03:29:15.591Z,13.7
2017-07-06T03:29:43.603Z,13.73
2017-07-06T03:30:11.517Z,13.67
2017-07-06T03:30:39.616Z,13.64
2017-07-06T03:31:07.622Z,13.64
2017-07-06T03:31:35.753Z,13.65
2017-07-06T03:32:03.848Z,13.65
2017-07-06T03:32:31.787Z,13.64
2017-07-06T03:32:59.914Z,13.62
2017-07-06T03:33:27.894Z,13.64
2017-07-06T03:33:55.736Z,13.57
2017-07-06T03:34:23.853Z,13.62
2017-07-06T03:34:51.855Z,13.61
2017-07-06T03:35:19.999Z,13.6
2017-07-06T03:35:47.898Z,13.58
2017-07-06T03:36:15.918Z,13.55
2017-07-06T03:36:43.915Z,13.61
2017-07-06T03:37:11.860Z,13.61
2017-07-06T03:37:39.896Z,13.6
2017-07-06T03:38:08.012Z,13.62
2017-07-06T03:38:36.018Z,13.64
2017-07-06T03:39:04.141Z,13.54
2017-07-06T03:39:32.172Z,13.58
2017-07-06T03:40:00.155Z,13.58
2017-07-06T03:40:28.162Z,13.57
2017-07-06T03:40:56.180Z,13.6
2017-07-06T03:41:24.083Z,13.57
2017-07-06T03:41:52.127Z,13.58
2017-07-06T03:42:20.115Z,13.62
2017-07-06T03:42:48.203Z,13.54
2017-07-06T03:43:16.232Z,13.49
2017-07-06T03:43:44.349Z,13.57
2017-07-06T03:44:12.403Z,13.57
2017-07-06T03:44:40.547Z,13.49
2017-07-06T03:45:08.466Z,13.55
2017-07-06T03:45:36.452Z,13.54
2017-07-06T03:46:04.456Z,13.57
2017-07-06T03:46:32.471Z,13.54
2017-07-06T03:47:00.600Z,13.54
2017-07-06T03:47:28.635Z,13.49
2017-07-06T03:47:56.650Z,13.47
2017-07-06T03:48:24.668Z,13.5
2017-07-06T03:48:52.769Z,13.49
2017-07-06T03:49:20.687Z,13.46
2017-07-06T03:49:48.661Z,13.43
2017-07-06T03:50:16.801Z,13.47
2017-07-06T03:50:44.856Z,13.4
2017-07-06T03:51:12.767Z,13.49
2017-07-06T03:51:40.911Z,13.47
2017-07-06T03:52:08.958Z,13.43
2017-07-06T03:52:37.088Z,13.43
2017-07-06T03:53:05.113Z,13.49
2017-07-06T03:53:33.144Z,13.37
2017-07-06T03:54:01.253Z,13.43
2017-07-06T03:54:29.257Z,13.39
2017-07-06T03:54:57.396Z,13.4
2017-07-06T03:55:25.329Z,13.45
2017-07-06T03:55:53.328Z,13.43
2017-07-06T03:56:21.358Z,13.43
2017-07-06T03:56:49.392Z,13.43
2017-07-06T03:57:17.523Z,13.45
2017-07-06T03:57:45.552Z,13.4
2017-07-06T03:58:13.676Z,13.42
2017-07-06T03:58:41.694Z,13.36
2017-07-06T03:59:09.821Z,13.43
2017-07-06T03:59:37.736Z,13.42
2017-07-06T04:00:05.669Z,13.37
2017-07-06T04:00:33.779Z,13.37
2017-07-06T04:01:01.888Z,13.39
2017-07-06T04:01:29.923Z,13.37
2017-07-06T04:01:57.968Z,13.31
2017-07-06T04:02:26.079Z,13.33
2017-07-06T04:02:54.256Z,13.31
2017-07-06T04:03:22.394Z,13.36
2017-07-06T04:03:50.528Z,13.33
2017-07-06T04:04:18.564Z,13.27
2017-07-06T04:04:46.689Z,13.28
2017-07-06T04:05:14.598Z,13.33
2017-07-06T04:05:42.638Z,13.28
2017-07-06T04:06:10.649Z,13.39
2017-07-06T04:06:38.785Z,13.26
2017-07-06T04:07:06.827Z,13.17
2017-07-06T04:07:34.731Z,13.2
2017-07-06T04:08:02.845Z,13.19
2017-07-06T04:08:30.892Z,13.26
2017-07-06T04:08:58.810Z,13.16
2017-07-06T04:09:26.960Z,13.2
2017-07-06T04:09:54.998Z,13.2
2017-07-06T04:10:23.021Z,13.26
2017-07-06T04:10:51.157Z,13.23
2017-07-06T04:11:19.181Z,13.26
2017-07-06T04:11:47.192Z,13.16
2017-07-06T04:12:15.183Z,13.16
2017-07-06T04:12:43.013Z,13.16
2017-07-06T04:13:10.947Z,13.12
2017-07-06T04:13:38.980Z,13.2
2017-07-06T04:14:06.926Z,13.16
2017-07-06T04:14:34.960Z,13.17
2017-07-06T04:15:02.975Z,13.19
2017-07-06T04:15:30.801Z,13.13
2017-07-06T04:15:58.913Z,13.12
2017-07-06T04:16:26.842Z,13.13
2017-07-06T04:16:54.862Z,13.09
2017-07-06T04:17:22.778Z,13.13
2017-07-06T04:17:50.802Z,13.11
2017-07-06T04:18:18.918Z,13.03
2017-07-06T04:18:46.955Z,13.13
2017-07-06T04:19:15.099Z,13.12
2017-07-06T04:19:43.093Z,13.12
2017-07-06T04:20:11.002Z,13.06
2017-07-06T04:20:39.127Z,13.16
2017-07-06T04:21:07.152Z,13.12
2017-07-06T04:21:35.287Z,13.11
2017-07-06T04:22:03.298Z,13.11
2017-07-06T04:22:31.289Z,13.05
2017-07-06T04:22:59.100Z,12.99
2017-07-06T04:23:26.796Z,13.09
2017-07-06T04:23:54.846Z,13.06
2017-07-06T04:24:22.837Z,13.12
2017-07-06T04:24:50.725Z,13.13
2017-07-06T04:25:18.832Z,13.06
2017-07-06T04:25:46.846Z,12.95
2017-07-06T04:26:14.567Z,13.12
2017-07-06T04:26:42.589Z,13.17
2017-07-06T04:27:10.626Z,12.98
2017-07-06T04:27:38.658Z,12.98
2017-07-06T04:28:06.572Z,12.98
2017-07-06T04:28:34.696Z,13.02
2017-07-06T04:29:02.608Z,13.09
2017-07-06T04:29:30.641Z,13.05
2017-07-06T04:29:58.574Z,12.93
2017-07-06T04:30:26.571Z,13.02
2017-07-06T04:30:54.585Z,12.99
2017-07-06T04:31:22.598Z,12.99
2017-07-06T04:31:50.620Z,13.02
2017-07-06T04:32:18.653Z,12.95
2017-07-06T04:32:46.767Z,13.11
2017-07-06T04:33:14.759Z,13.09
2017-07-06T04:33:42.873Z,13.11
2017-07-06T04:34:11.006Z,13.09
2017-07-06T04:34:38.916Z,13.09
2017-07-06T04:35:06.827Z,13.08
2017-07-06T04:35:34.945Z,13.12
2017-07-06T04:36:03.064Z,13.16
2017-07-06T04:36:31.087Z,13.08
2017-07-06T04:36:59.221Z,13.12
2017-07-06T04:37:27.357Z,13.12
2017-07-06T04:37:55.181Z,12.98
2017-07-06T04:38:23.308Z,13.09
2017-07-06T04:38:51.206Z,13.13
2017-07-06T04:39:19.344Z,13.08
2017-07-06T04:39:47.475Z,13.05
2017-07-06T04:40:15.587Z,13.16
2017-07-06T04:40:43.520Z,13.12
2017-07-06T04:41:11.527Z,13.11
2017-07-06T04:41:39.651Z,13.06
2017-07-06T04:42:07.769Z,13.19
2017-07-06T04:42:35.905Z,13.17
2017-07-06T04:43:04.024Z,13.06
2017-07-06T04:43:31.825Z,13.17
2017-07-06T04:43:59.942Z,13.21
2017-07-06T04:44:27.946Z,13.08
2017-07-06T04:44:55.956Z,13.13
2017-07-06T04:45:24.086Z,13.16
2017-07-06T04:45:52.207Z,13.17
2017-07-06T04:46:20.133Z,13.17
2017-07-06T04:46:48.158Z,13.17
2017-07-06T04:47:15.999Z,13.16
2017-07-06T04:47:44.026Z,13.12
2017-07-06T04:48:12.164Z,13.17
2017-07-06T04:48:40.181Z,13.17
2017-07-06T04:49:08.124Z,13.16
2017-07-06T04:49:36.273Z,13.17
2017-07-06T04:50:04.397Z,13.11
2017-07-06T04:50:32.524Z,13.13
2017-07-06T04:51:00.665Z,13.17
2017-07-06T04:51:28.598Z,13.2
2017-07-06T04:51:56.422Z,13.19
2017-07-06T04:52:24.552Z,13.21
2017-07-06T04:52:52.562Z,13.12
2017-07-06T04:53:20.474Z,13.11
2017-07-06T04:53:48.474Z,13.2
2017-07-06T04:54:16.560Z,13.23
2017-07-06T04:54:44.366Z,13.23
2017-07-06T04:55:12.389Z,13.19
2017-07-06T04:55:40.388Z,13.19
2017-07-06T04:56:08.467Z,13.11
2017-07-06T04:56:36.536Z,13.12
2017-07-06T04:57:04.566Z,13.2
2017-07-06T04:57:32.665Z,13.2
2017-07-06T04:58:00.702Z,13.13
2017-07-06T04:58:28.799Z,13.17
2017-07-06T04:58:56.819Z,13.2
2017-07-06T04:59:24.767Z,13.16
2017-07-06T04:59:53.215Z,13.16
2017-07-06T05:00:21.359Z,13.13
2017-07-06T05:00:49.401Z,13.24
2017-07-06T05:01:17.313Z,13.13
2017-07-06T05:01:45.315Z,13.12
2017-07-06T05:02:13.479Z,13.13
2017-07-06T05:02:41.518Z,13.2
2017-07-06T05:03:09.429Z,13.19
2017-07-06T05:03:37.567Z,13.12
2017-07-06T05:04:05.551Z,13.16
2017-07-06T05:04:33.683Z,13.16
2017-07-06T05:05:01.819Z,13.16
2017-07-06T05:05:29.804Z,13.13
2017-07-06T05:05:57.930Z,13.11
2017-07-06T05:06:26.017Z,13.21
2017-07-06T05:06:54.044Z,13.12
2017-07-06T05:07:22.167Z,13.13
2017-07-06T05:07:50.219Z,13.11
2017-07-06T05:08:18.338Z,13.13
2017-07-06T05:08:46.265Z,13.16
2017-07-06T05:09:14.277Z,13.11
2017-07-06T05:09:42.358Z,13.11
2017-07-06T05:10:10.320Z,13.17
2017-07-06T05:10:38.450Z,13.12
2017-07-06T05:11:06.361Z,12.95
2017-07-06T05:11:34.388Z,13.08
2017-07-06T05:12:02.407Z,13.16
2017-07-06T05:12:30.525Z,12.94
2017-07-06T05:12:58.433Z,13.02
2017-07-06T05:13:26.473Z,13.02
2017-07-06T05:13:54.488Z,13.01
2017-07-06T05:14:22.411Z,13.02
2017-07-06T05:14:50.400Z,13.02
2017-07-06T05:15:18.432Z,13.02
2017-07-06T05:15:46.524Z,13.01
2017-07-06T05:16:14.555Z,12.98
2017-07-06T05:16:42.696Z,12.98
2017-07-06T05:17:10.802Z,12.99
2017-07-06T05:17:38.821Z,13.01
2017-07-06T05:18:06.620Z,13.01
2017-07-06T05:18:34.628Z,13.01
2017-07-06T05:19:02.664Z,12.95
2017-07-06T05:19:30.791Z,12.99
2017-07-06T05:19:58.804Z,12.95
2017-07-06T05:20:26.822Z,12.95
2017-07-06T05:20:54.910Z,12.95
2017-07-06T05:21:22.840Z,12.93
2017-07-06T05:21:50.943Z,13.02
2017-07-06T05:22:18.959Z,12.99
2017-07-06T05:22:46.981Z,12.95
2017-07-06T05:23:14.909Z,12.91
2017-07-06T05:23:42.793Z,12.94
2017-07-06T05:24:10.935Z,12.99
2017-07-06T05:24:38.841Z,12.94
2017-07-06T05:25:06.653Z,12.93
2017-07-06T05:25:34.781Z,12.98
2017-07-06T05:26:02.722Z,12.9
2017-07-06T05:26:30.847Z,12.94
2017-07-06T05:26:58.929Z,12.87
2017-07-06T05:27:26.927Z,12.93
2017-07-06T05:27:54.952Z,12.98
2017-07-06T05:28:23.088Z,12.93
2017-07-06T05:28:51.214Z,12.9
2017-07-06T05:29:19.346Z,12.93
2017-07-06T05:29:47.493Z,12.9
2017-07-06T05:30:15.514Z,12.94
2017-07-06T05:30:43.549Z,12.9
2017-07-06T05:31:11.473Z,12.87
2017-07-06T05:31:39.470Z,12.93
2017-07-06T05:32:07.412Z,12.93
2017-07-06T05:32:35.506Z,12.95
2017-07-06T05:33:03.605Z,12.88
2017-07-06T05:33:31.631Z,12.9
2017-07-06T05:33:59.652Z,12.9
2017-07-06T05:34:27.593Z,12.9
2017-07-06T05:34:55.631Z,12.83
2017-07-06T05:35:23.644Z,12.84
2017-07-06T05:35:51.695Z,12.8
2017-07-06T05:36:19.701Z,12.78
2017-07-06T05:36:47.826Z,12.78
2017-07-06T05:37:15.834Z,12.81
2017-07-06T05:37:43.842Z,12.75
2017-07-06T05:38:11.770Z,12.73
2017-07-06T05:38:39.793Z,12.78
2017-07-06T05:39:07.807Z,12.69
2017-07-06T05:39:35.948Z,12.69
2017-07-06T05:40:04.063Z,12.7
2017-07-06T05:40:32.066Z,12.73
2017-07-06T05:41:00.197Z,12.73
2017-07-06T05:41:28.129Z,12.72
2017-07-06T05:41:56.275Z,12.69
2017-07-06T05:42:24.398Z,12.75
2017-07-06T05:42:52.427Z,12.78
2017-07-06T05:43:20.476Z,12.72
2017-07-06T05:43:48.394Z,12.78
2017-07-06T05:44:16.379Z,12.8
2017-07-06T05:44:44.378Z,12.8
2017-07-06T05:45:12.575Z,12.72
2017-07-06T05:45:40.711Z,12.78
2017-07-06T05:46:08.837Z,12.78
2017-07-06T05:46:36.662Z,12.83
2017-07-06T05:47:04.680Z,12.72
2017-07-06T05:47:32.589Z,12.84
2017-07-06T05:48:00.695Z,12.76
2017-07-06T05:48:28.620Z,12.76
2017-07-06T05:48:56.652Z,12.75
2017-07-06T05:49:24.558Z,12.78
2017-07-06T05:49:52.657Z,12.8
2017-07-06T05:50:20.769Z,12.83
2017-07-06T05:50:48.912Z,12.84
2017-07-06T05:51:17.033Z,12.83
2017-07-06T05:51:45.047Z,12.83
2017-07-06T05:52:13.067Z,12.8
2017-07-06T05:52:41.198Z,12.84
2017-07-06T05:53:09.123Z,12.81
2017-07-06T05:53:37.139Z,12.86
2017-07-06T05:54:05.168Z,12.9
2017-07-06T05:54:33.283Z,12.83
2017-07-06T05:55:01.289Z,12.87
2017-07-06T05:55:29.404Z,12.84
2017-07-06T05:55:57.441Z,12.84
2017-07-06T05:56:25.364Z,12.88
2017-07-06T05:56:53.491Z,12.88
2017-07-06T05:57:21.630Z,12.91
2017-07-06T05:57:49.747Z,12.88
2017-07-06T05:58:17.559Z,12.9
2017-07-06T05:58:45.571Z,12.95
2017-07-06T05:59:13.466Z,12.88
2017-07-06T05:59:41.477Z,12.9
2017-07-06T06:00:09.485Z,12.93
2017-07-06T06:00:37.675Z,12.88
2017-07-06T06:01:05.701Z,12.86
2017-07-06T06:01:33.829Z,12.87
2017-07-06T06:02:01.871Z,12.93
2017-07-06T06:02:29.973Z,12.98